createdAt,value
2019-05-16T00:01:30.194Z,12.80
2019-05-16T00:04:17.865Z,12.80
2019-05-16T00:07:04.972Z,12.80
2019-05-16T00:09:52.156Z,12.90
2019-05-16T00:12:40.127Z,12.90
2019-05-16T00:15:28.669Z,12.90
2019-05-16T00:18:17.856Z,12.90
2019-05-16T00:21:05.217Z,12.90
2019-05-16T00:23:51.429Z,12.80
2019-05-16T00:26:38.931Z,12.80
2019-05-16T00:29:27.718Z,12.80
2019-05-16T00:32:14.530Z,12.80
2019-05-16T00:35:01.604Z,12.80
2019-05-16T00:37:48.825Z,12.80
2019-05-16T00:40:38.034Z,12.80
2019-05-16T00:43:24.888Z,12.70
2019-05-16T00:46:11.703Z,12.60
2019-05-16T00:48:59.050Z,12.60
2019-05-16T00:51:48.023Z,12.70
2019-05-16T00:54:34.944Z,12.70
2019-05-16T00:57:22.177Z,12.70
2019-05-16T01:00:11.704Z,12.70
2019-05-16T01:02:58.939Z,12.70
2019-05-16T01:05:47.988Z,12.70
2019-05-16T01:08:35.057Z,12.70
2019-05-16T01:11:22.568Z,12.60
2019-05-16T01:14:09.683Z,12.60
2019-05-16T01:16:58.138Z,12.60
2019-05-16T01:19:45.696Z,12.60
2019-05-16T01:22:33.149Z,12.50
2019-05-16T01:25:20.282Z,12.60
2019-05-16T01:28:08.859Z,12.60
2019-05-16T01:30:58.017Z,12.50
2019-05-16T01:33:44.969Z,12.50
2019-05-16T01:36:36.722Z,12.50
2019-05-16T01:39:20.886Z,12.40
2019-05-16T01:42:08.161Z,12.30
2019-05-16T01:44:55.036Z,12.20
2019-05-16T01:47:42.301Z,12.10
2019-05-16T01:50:28.482Z,12.00
2019-05-16T01:53:17.666Z,11.90
2019-05-16T01:56:04.812Z,11.70
2019-05-16T01:58:50.997Z,11.70
2019-05-16T02:01:37.897Z,11.70
2019-05-16T02:04:25.320Z,11.60
2019-05-16T02:07:12.287Z,11.60
2019-05-16T02:09:59.208Z,11.60
2019-05-16T02:12:48.804Z,11.50
2019-05-16T02:15:35.386Z,11.50
2019-05-16T02:18:22.612Z,11.50
2019-05-16T02:21:09.923Z,11.50
2019-05-16T02:23:58.509Z,11.50
2019-05-16T02:26:45.895Z,11.50
2019-05-16T02:29:33.026Z,11.50
2019-05-16T02:32:22.317Z,11.50
2019-05-16T02:35:11.699Z,11.50
2019-05-16T02:38:01.028Z,11.60
2019-05-16T02:40:54.437Z,11.50
2019-05-16T02:43:36.529Z,11.50
2019-05-16T02:46:23.882Z,11.50
2019-05-16T02:49:11.704Z,11.50
2019-05-16T02:52:01.431Z,11.50
2019-05-16T02:54:51.546Z,11.60
2019-05-16T02:57:37.148Z,11.60
2019-05-16T03:00:35.391Z,11.50
2019-05-16T03:03:22.487Z,11.60
2019-05-16T03:06:11.281Z,11.50
2019-05-16T03:09:04.723Z,11.50
2019-05-16T03:11:51.004Z,11.50
2019-05-16T03:14:41.709Z,11.50
2019-05-16T03:17:31.769Z,11.50
2019-05-16T03:20:21.051Z,11.50
2019-05-16T03:23:07.440Z,11.60
2019-05-16T03:25:53.591Z,11.60
2019-05-16T03:28:41.438Z,11.60
2019-05-16T03:31:33.669Z,11.50
2019-05-16T03:34:24.734Z,11.50
2019-05-16T03:37:06.404Z,11.60
2019-05-16T03:39:53.213Z,11.50
2019-05-16T03:42:41.683Z,11.60
2019-05-16T03:45:31.521Z,11.60
2019-05-16T03:48:20.981Z,11.60
2019-05-16T03:51:06.599Z,11.60
2019-05-16T03:53:53.629Z,11.60
2019-05-16T03:56:40.961Z,11.60
2019-05-16T03:59:31.210Z,11.70
2019-05-16T04:02:16.925Z,11.60
2019-05-16T04:05:03.463Z,11.60
2019-05-16T04:07:53.045Z,11.70
2019-05-16T04:10:40.935Z,11.60
2019-05-16T04:13:31.096Z,11.50
2019-05-16T04:16:20.713Z,11.60
2019-05-16T04:19:06.156Z,11.50
2019-05-16T04:21:52.220Z,11.50
2019-05-16T04:24:41.599Z,11.50
2019-05-16T04:27:30.905Z,11.50
2019-05-16T04:30:17.103Z,11.50
2019-05-16T04:33:04.301Z,11.60
2019-05-16T04:35:52.889Z,11.60
2019-05-16T04:38:46.024Z,11.60
2019-05-16T04:41:31.297Z,11.60
2019-05-16T04:44:21.040Z,11.70
2019-05-16T04:47:06.882Z,11.80
2019-05-16T04:49:54.328Z,11.80
2019-05-16T04:52:42.173Z,11.70
2019-05-16T04:55:31.600Z,11.60
2019-05-16T04:58:22.575Z,11.60
2019-05-16T05:01:06.601Z,11.70
2019-05-16T05:04:08.842Z,11.80
2019-05-16T05:06:42.624Z,11.80
2019-05-16T05:09:31.711Z,11.70
2019-05-16T05:12:20.786Z,11.80
2019-05-16T05:15:11.157Z,11.80
2019-05-16T05:17:57.301Z,11.90
2019-05-16T05:20:43.888Z,12.00
2019-05-16T05:23:31.002Z,11.90
2019-05-16T05:26:17.120Z,12.00
2019-05-16T05:29:03.969Z,11.90
2019-05-16T05:31:54.996Z,12.00
2019-05-16T05:34:39.834Z,11.90
2019-05-16T05:37:26.373Z,12.00
2019-05-16T05:40:12.540Z,12.10
2019-05-16T05:42:59.888Z,12.10
2019-05-16T05:45:47.228Z,12.10
2019-05-16T05:48:33.812Z,12.20
2019-05-16T05:51:20.720Z,12.30
2019-05-16T05:54:07.882Z,12.20
2019-05-16T05:56:55.057Z,12.20
2019-05-16T05:59:41.176Z,12.30
2019-05-16T06:02:30.809Z,12.30
2019-05-16T06:05:16.753Z,12.40
2019-05-16T06:08:03.861Z,12.30
2019-05-16T06:10:51.015Z,12.40
2019-05-16T06:13:40.279Z,12.40
2019-05-16T06:16:26.781Z,12.40
2019-05-16T06:19:13.932Z,12.50
2019-05-16T06:22:01.363Z,12.80
2019-05-16T06:24:50.490Z,12.90
2019-05-16T06:27:37.012Z,13.00
2019-05-16T06:30:23.926Z,12.90
2019-05-16T06:33:10.891Z,13.00
2019-05-16T06:36:00.090Z,13.20
2019-05-16T06:38:46.400Z,13.30
2019-05-16T06:41:33.010Z,13.50
2019-05-16T06:44:20.273Z,13.10
2019-05-16T06:47:17.072Z,13.10
2019-05-16T06:49:55.661Z,13.20
2019-05-16T06:52:45.686Z,13.40
2019-05-16T06:55:31.386Z,13.50
2019-05-16T06:58:21.783Z,13.40
2019-05-16T07:01:09.710Z,13.20
2019-05-16T07:03:56.898Z,13.30
2019-05-16T07:06:56.125Z,13.50
2019-05-16T07:09:32.615Z,13.70
2019-05-16T07:12:20.257Z,13.70
2019-05-16T07:15:11.909Z,13.70
2019-05-16T07:17:55.975Z,13.70
2019-05-16T07:20:43.069Z,13.80
2019-05-16T07:23:29.832Z,13.80
2019-05-16T07:26:17.232Z,14.10
2019-05-16T07:29:03.825Z,14.30
2019-05-16T07:31:52.271Z,14.40
2019-05-16T07:34:40.346Z,14.30
2019-05-16T07:37:27.312Z,14.40
2019-05-16T07:40:19.575Z,14.30
2019-05-16T07:43:02.844Z,14.30
2019-05-16T07:45:51.304Z,14.40
2019-05-16T07:48:40.340Z,14.50
2019-05-16T07:51:27.967Z,14.70
2019-05-16T07:54:14.017Z,14.70
2019-05-16T07:57:11.477Z,14.50
2019-05-16T07:59:50.700Z,14.40
2019-05-16T08:02:40.271Z,14.60
2019-05-16T08:05:27.038Z,14.80
2019-05-16T08:08:14.644Z,14.70
2019-05-16T08:11:01.872Z,14.60
2019-05-16T08:13:50.736Z,14.70
2019-05-16T08:16:40.546Z,14.70
2019-05-16T08:19:26.989Z,14.80
2019-05-16T08:22:14.353Z,14.60
2019-05-16T08:25:01.523Z,14.70
2019-05-16T08:27:51.951Z,14.80
2019-05-16T08:30:41.200Z,14.70
2019-05-16T08:33:27.305Z,15.00
2019-05-16T08:36:14.932Z,15.10
2019-05-16T08:39:01.848Z,14.90
2019-05-16T08:41:52.070Z,14.90
2019-05-16T08:44:41.564Z,15.30
2019-05-16T08:47:26.653Z,15.50
2019-05-16T08:50:14.914Z,15.20
2019-05-16T08:53:02.930Z,15.30
2019-05-16T08:55:50.505Z,15.30
2019-05-16T08:58:40.836Z,15.50
2019-05-16T09:01:26.308Z,15.40
2019-05-16T09:04:13.594Z,15.50
2019-05-16T09:07:01.952Z,15.50
2019-05-16T09:09:53.048Z,15.70
2019-05-16T09:12:38.026Z,15.60
2019-05-16T09:15:27.252Z,15.40
2019-05-16T09:18:17.581Z,15.50
2019-05-16T09:21:03.413Z,15.80
2019-05-16T09:23:49.466Z,15.90
2019-05-16T09:26:38.282Z,15.80
2019-05-16T09:29:27.328Z,16.10
2019-05-16T09:32:17.976Z,16.00
2019-05-16T09:35:02.967Z,16.00
2019-05-16T09:37:50.365Z,16.00
2019-05-16T09:40:38.902Z,16.30
2019-05-16T09:43:28.121Z,16.50
2019-05-16T09:46:16.954Z,16.90
2019-05-16T09:49:16.795Z,17.30
2019-05-16T09:51:52.140Z,17.40
2019-05-16T09:54:39.361Z,17.30
2019-05-16T09:57:27.818Z,16.80
2019-05-16T10:00:18.078Z,16.80
2019-05-16T10:03:07.091Z,17.10
2019-05-16T10:05:54.573Z,17.10
2019-05-16T10:08:42.882Z,17.50
2019-05-16T10:11:31.319Z,17.50
2019-05-16T10:14:18.008Z,17.30
2019-05-16T10:17:04.888Z,17.30
2019-05-16T10:19:51.754Z,17.50
2019-05-16T10:22:38.779Z,17.50
2019-05-16T10:25:27.732Z,17.30
2019-05-16T10:28:17.418Z,17.20
2019-05-16T10:31:06.730Z,17.20
2019-05-16T10:33:53.434Z,17.10
2019-05-16T10:36:40.497Z,17.10
2019-05-16T10:39:27.634Z,17.00
2019-05-16T10:42:27.154Z,17.30
2019-05-16T10:45:04.960Z,17.40
2019-05-16T10:47:52.300Z,17.50
2019-05-16T10:50:39.626Z,17.40
2019-05-16T10:53:52.328Z,17.30
2019-05-16T10:56:16.020Z,17.20
2019-05-16T10:59:37.824Z,16.90
2019-05-16T11:01:52.071Z,16.80
2019-05-16T11:04:53.735Z,17.20
2019-05-16T11:07:29.766Z,16.90
2019-05-16T11:10:17.687Z,17.50
2019-05-16T11:13:07.878Z,17.90
2019-05-16T11:15:54.108Z,18.10
2019-05-16T11:18:41.082Z,18.30
2019-05-16T11:21:28.392Z,18.80
2019-05-16T11:24:15.478Z,18.90
2019-05-16T11:27:02.649Z,19.10
2019-05-16T11:29:49.597Z,19.20
2019-05-16T11:32:37.479Z,19.70
2019-05-16T11:35:26.978Z,20.20
2019-05-16T11:38:13.288Z,20.70
2019-05-16T11:41:00.431Z,19.80
2019-05-16T11:43:47.572Z,19.70
2019-05-16T11:46:37.234Z,20.10
2019-05-16T11:49:22.833Z,20.90
2019-05-16T11:52:09.458Z,21.40
2019-05-16T11:54:57.154Z,21.80
2019-05-16T11:57:44.207Z,21.40
2019-05-16T12:00:32.045Z,20.90
2019-05-16T12:03:19.491Z,21.10
2019-05-16T12:06:10.818Z,21.50
2019-05-16T12:08:55.559Z,22.20
2019-05-16T12:11:42.512Z,22.00
2019-05-16T12:14:29.577Z,21.50
2019-05-16T12:17:16.794Z,21.70
2019-05-16T12:20:07.654Z,22.10
2019-05-16T12:22:53.545Z,22.20
2019-05-16T12:25:40.556Z,21.40
2019-05-16T12:28:28.208Z,20.80
2019-05-16T12:31:37.358Z,20.60
2019-05-16T12:34:24.174Z,20.10
2019-05-16T12:37:11.109Z,20.00
2019-05-16T12:39:58.301Z,20.10
2019-05-16T12:42:47.176Z,20.10
2019-05-16T12:45:34.963Z,20.00
2019-05-16T12:48:22.032Z,19.80
2019-05-16T12:51:09.245Z,19.80
2019-05-16T12:53:57.198Z,19.60
2019-05-16T12:56:44.627Z,19.80
2019-05-16T12:59:32.044Z,20.00
2019-05-16T13:02:21.721Z,20.20
2019-05-16T13:05:09.688Z,20.10
2019-05-16T13:07:57.256Z,20.30
2019-05-16T13:10:46.815Z,20.00
2019-05-16T13:13:32.795Z,20.00
2019-05-16T13:16:20.002Z,19.40
2019-05-16T13:19:07.047Z,19.30
2019-05-16T13:21:54.396Z,19.10
2019-05-16T13:24:41.620Z,19.10
2019-05-16T13:27:29.089Z,18.90
2019-05-16T13:30:18.170Z,18.60
2019-05-16T13:33:07.337Z,18.80
2019-05-16T13:35:54.403Z,18.60
2019-05-16T13:38:41.373Z,18.30
2019-05-16T13:41:28.429Z,18.30
2019-05-16T13:44:19.949Z,18.50
2019-05-16T13:47:03.818Z,18.10
2019-05-16T13:49:50.781Z,18.30
2019-05-16T13:52:37.685Z,18.10
2019-05-16T13:55:27.151Z,18.10
2019-05-16T13:58:13.669Z,18.10
2019-05-16T14:01:00.673Z,17.90
2019-05-16T14:03:48.861Z,18.00
2019-05-16T14:06:36.860Z,18.10
2019-05-16T14:09:26.715Z,18.30
2019-05-16T14:12:12.667Z,17.90
2019-05-16T14:14:59.616Z,17.90
2019-05-16T14:17:48.916Z,17.90
2019-05-16T14:20:37.652Z,18.00
2019-05-16T14:23:24.654Z,18.30
2019-05-16T14:26:13.399Z,18.30
2019-05-16T14:29:00.661Z,17.90
2019-05-16T14:31:47.595Z,17.70
2019-05-16T14:34:34.636Z,17.70
2019-05-16T14:37:21.298Z,17.30
2019-05-16T14:40:08.991Z,17.40
2019-05-16T14:42:58.284Z,17.20
2019-05-16T14:45:46.642Z,16.80
2019-05-16T14:48:33.640Z,16.60
2019-05-16T14:51:19.581Z,16.60
2019-05-16T14:54:07.725Z,16.40
2019-05-16T14:57:00.265Z,16.30
2019-05-16T14:59:46.955Z,16.10
2019-05-16T15:02:34.160Z,16.50
2019-05-16T15:05:21.534Z,16.50
2019-05-16T15:08:09.019Z,15.90
2019-05-16T15:10:57.416Z,15.80
2019-05-16T15:13:44.613Z,15.70
2019-05-16T15:16:31.456Z,15.50
2019-05-16T15:19:18.138Z,15.40
2019-05-16T15:22:07.935Z,15.30
2019-05-16T15:24:59.026Z,14.80
2019-05-16T15:27:43.240Z,14.80
2019-05-16T15:30:30.380Z,14.80
2019-05-16T15:33:19.802Z,14.70
2019-05-16T15:36:08.973Z,14.60
2019-05-16T15:38:56.710Z,14.80
2019-05-16T15:41:44.813Z,15.00
2019-05-16T15:44:32.377Z,15.20
2019-05-16T15:47:19.048Z,15.40
2019-05-16T15:50:08.013Z,15.50
2019-05-16T15:52:58.905Z,15.90
2019-05-16T15:55:43.615Z,15.80
2019-05-16T15:58:30.260Z,15.40
2019-05-16T16:01:18.536Z,15.00
2019-05-16T16:04:07.021Z,15.00
2019-05-16T16:06:54.086Z,15.10
2019-05-16T16:09:40.789Z,14.80
2019-05-16T16:12:27.654Z,14.80
2019-05-16T16:15:13.745Z,14.70
2019-05-16T16:18:00.914Z,15.00
2019-05-16T16:20:48.003Z,15.00
2019-05-16T16:23:37.153Z,14.80
2019-05-16T16:26:23.657Z,14.80
2019-05-16T16:29:16.921Z,14.70
2019-05-16T16:32:06.341Z,14.80
2019-05-16T16:34:53.074Z,14.70
2019-05-16T16:37:40.384Z,14.50
2019-05-16T16:40:27.461Z,14.50
2019-05-16T16:43:14.702Z,14.70
2019-05-16T16:46:08.816Z,14.60
2019-05-16T16:48:50.824Z,14.20
2019-05-16T16:51:37.760Z,14.20
2019-05-16T16:54:27.408Z,13.90
2019-05-16T16:57:13.324Z,13.70
2019-05-16T17:00:00.304Z,13.60
2019-05-16T17:03:02.318Z,13.80
2019-05-16T17:05:37.227Z,13.50
2019-05-16T17:08:24.042Z,13.30
2019-05-16T17:11:11.203Z,13.30
2019-05-16T17:13:58.188Z,13.20
2019-05-16T17:16:47.315Z,13.20
2019-05-16T17:19:33.596Z,13.10
2019-05-16T17:22:20.998Z,13.00
2019-05-16T17:25:09.070Z,12.90
2019-05-16T17:27:57.274Z,12.90
2019-05-16T17:30:46.870Z,13.10
2019-05-16T17:33:32.922Z,13.30
2019-05-16T17:36:20.281Z,13.20
2019-05-16T17:39:07.785Z,13.00
2019-05-16T17:41:57.877Z,13.00
2019-05-16T17:44:44.090Z,13.00
2019-05-16T17:47:30.178Z,13.00
2019-05-16T17:50:18.192Z,13.10
2019-05-16T17:53:07.078Z,12.90
2019-05-16T17:55:54.021Z,12.80
2019-05-16T17:58:41.084Z,12.60
2019-05-16T18:01:28.424Z,12.50
2019-05-16T18:04:17.181Z,12.70
2019-05-16T18:07:04.314Z,12.70
2019-05-16T18:09:51.728Z,12.70
2019-05-16T18:12:39.342Z,12.50
2019-05-16T18:15:26.596Z,12.50
2019-05-16T18:18:13.805Z,12.80
2019-05-16T18:21:02.362Z,12.50
2019-05-16T18:23:49.618Z,12.70
2019-05-16T18:26:37.377Z,12.60
2019-05-16T18:29:26.794Z,12.60
2019-05-16T18:32:13.468Z,12.70
2019-05-16T18:35:00.753Z,12.70
2019-05-16T18:37:48.140Z,12.50
2019-05-16T18:40:36.480Z,12.40
2019-05-16T18:43:23.209Z,12.50
2019-05-16T18:46:10.661Z,12.50
2019-05-16T18:48:58.118Z,12.40
2019-05-16T18:51:46.495Z,12.40
2019-05-16T18:54:33.574Z,12.40
2019-05-16T18:57:20.834Z,12.40
2019-05-16T19:00:10.639Z,12.40
2019-05-16T19:02:59.371Z,12.40
2019-05-16T19:05:46.863Z,12.40
2019-05-16T19:08:33.871Z,12.40
2019-05-16T19:11:19.981Z,12.30
2019-05-16T19:14:07.681Z,12.30
2019-05-16T19:16:56.669Z,12.10
2019-05-16T19:19:43.651Z,11.90
2019-05-16T19:22:31.008Z,11.90
2019-05-16T19:25:18.539Z,11.70
2019-05-16T19:28:07.059Z,11.80
2019-05-16T19:30:57.014Z,11.70
2019-05-16T19:33:43.929Z,11.70
2019-05-16T19:36:30.725Z,11.80
2019-05-16T19:39:17.875Z,11.60
2019-05-16T19:42:06.506Z,11.60
2019-05-16T19:44:56.086Z,11.50
2019-05-16T19:47:43.365Z,11.40
2019-05-16T19:50:30.936Z,11.40
2019-05-16T19:53:18.147Z,11.50
2019-05-16T19:56:07.236Z,11.50
2019-05-16T19:58:54.291Z,11.60
2019-05-16T20:01:41.409Z,11.60
2019-05-16T20:04:28.856Z,11.60
2019-05-16T20:07:16.767Z,11.60
2019-05-16T20:10:09.604Z,11.60
2019-05-16T20:12:56.918Z,11.70
2019-05-16T20:15:44.373Z,11.70
2019-05-16T20:18:31.576Z,11.60
2019-05-16T20:21:18.759Z,11.80
2019-05-16T20:24:07.486Z,11.80
2019-05-16T20:26:56.971Z,11.70
2019-05-16T20:29:43.674Z,11.70
2019-05-16T20:32:31.616Z,11.50
2019-05-16T20:35:18.841Z,11.50
2019-05-16T20:38:06.871Z,11.50
2019-05-16T20:40:56.962Z,11.50
2019-05-16T20:43:43.779Z,11.50
2019-05-16T20:46:30.931Z,11.60
2019-05-16T20:49:18.356Z,11.50
2019-05-16T20:52:07.038Z,11.50
2019-05-16T20:54:57.255Z,11.60
2019-05-16T20:57:43.733Z,11.60
2019-05-16T21:00:31.096Z,11.50
2019-05-16T21:03:18.219Z,11.60
2019-05-16T21:06:08.558Z,11.60
2019-05-16T21:08:56.898Z,11.50
2019-05-16T21:11:43.663Z,11.50
2019-05-16T21:14:30.896Z,11.40
2019-05-16T21:17:17.994Z,11.40
2019-05-16T21:20:07.349Z,11.40
2019-05-16T21:22:56.492Z,11.40
2019-05-16T21:25:43.633Z,11.30
2019-05-16T21:28:30.700Z,11.20
2019-05-16T21:31:19.502Z,11.30
2019-05-16T21:34:07.148Z,11.30
2019-05-16T21:36:54.556Z,11.30
2019-05-16T21:39:42.031Z,11.30
2019-05-16T21:42:29.174Z,11.30
2019-05-16T21:45:16.557Z,11.30
2019-05-16T21:48:03.661Z,11.20
2019-05-16T21:50:50.771Z,11.20
2019-05-16T21:53:38.149Z,11.20
2019-05-16T21:56:26.607Z,11.30
2019-05-16T21:59:13.942Z,11.40
2019-05-16T22:02:01.097Z,11.50
2019-05-16T22:04:48.373Z,11.40
2019-05-16T22:07:36.456Z,11.30
2019-05-16T22:10:23.957Z,11.40
2019-05-16T22:13:12.725Z,11.30
2019-05-16T22:15:59.595Z,11.30
2019-05-16T22:18:47.411Z,11.50
2019-05-16T22:21:34.296Z,11.50
2019-05-16T22:24:20.376Z,11.50
2019-05-16T22:27:07.355Z,11.50
2019-05-16T22:29:53.484Z,11.50
2019-05-16T22:32:40.803Z,11.40
2019-05-16T22:35:27.744Z,11.40
2019-05-16T22:38:16.696Z,11.40
2019-05-16T22:41:02.948Z,11.50
2019-05-16T22:43:50.009Z,11.50
2019-05-16T22:46:37.223Z,11.40
2019-05-16T22:49:24.237Z,11.40
2019-05-16T22:52:10.352Z,11.40
2019-05-16T22:54:57.065Z,11.40
2019-05-16T22:57:43.199Z,11.40
2019-05-16T23:00:31.510Z,11.40
2019-05-16T23:03:18.448Z,11.30
2019-05-16T23:06:07.628Z,11.40
2019-05-16T23:08:56.200Z,11.50
2019-05-16T23:11:42.610Z,11.60
2019-05-16T23:14:29.848Z,11.70
2019-05-16T23:17:17.270Z,11.70
2019-05-16T23:20:06.357Z,11.60
2019-05-16T23:22:53.258Z,11.60
2019-05-16T23:25:40.663Z,11.50
2019-05-16T23:28:27.984Z,11.50
2019-05-16T23:31:16.662Z,11.40
2019-05-16T23:34:03.948Z,11.50
2019-05-16T23:36:51.319Z,11.40
2019-05-16T23:39:38.823Z,11.40
2019-05-16T23:42:26.390Z,11.50
2019-05-16T23:45:14.176Z,11.50
2019-05-16T23:48:01.044Z,11.40
2019-05-16T23:50:48.017Z,11.40
2019-05-16T23:53:37.145Z,11.40
2019-05-16T23:56:27.148Z,11.30
2019-05-16T23:59:13.499Z,11.40
